Time;durP1;ratioP1;P1;durP2;ratioP2;P2;SDS_P1;SDS_P2;PMS_P1;PMS_P2;Temp;Humidity;BMP_temperature;BMP_pressure;BME280_temperature;BME280_humidity;BME280_pressure;Samples;Min_cycle;Max_cycle;Signal;HPM_P1;HPM_P2
2021/06/17 00:00:19;;;;;;;10.65;8.85;;;;;;;;;;1497390;39;20291;-57
2021/06/17 00:01:20;;;;;;;10.15;7.60;;;;;;;;;;1497426;39;20120;-56
2021/06/17 00:02:22;;;;;;;9.38;7.68;;;;;;;;;;1497409;39;20391;-56
2021/06/17 00:03:23;;;;;;;10.02;7.85;;;;;;;;;;1497428;39;20287;-57
2021/06/17 00:04:25;;;;;;;10.18;7.70;;;;;;;;;;1497273;39;20031;-57
2021/06/17 00:05:28;;;;;;;12.77;8.18;;;;;;;;;;1497398;39;20038;-57
2021/06/17 00:06:30;;;;;;;11.02;8.70;;;;;;;;;;1497289;39;20035;-57
2021/06/17 00:07:30;;;;;;;11.95;8.18;;;;;;;;;;1497191;39;20386;-59
2021/06/17 00:08:33;;;;;;;9.77;8.15;;;;;;;;;;1497349;39;20042;-57
2021/06/17 00:09:34;;;;;;;11.02;8.45;;;;;;;;;;1497226;39;20027;-57
2021/06/17 00:10:39;;;;;;;12.13;8.65;;;;;;;;;;1497279;39;20031;-56
2021/06/17 00:11:40;;;;;;;9.90;8.70;;;;;;;;;;1497414;39;20038;-57
2021/06/17 00:12:41;;;;;;;11.45;8.63;;;;;;;;;;1497464;39;20028;-57
2021/06/17 00:13:42;;;;;;;11.20;9.75;;;;;;;;;;1497419;39;20035;-57
2021/06/17 00:14:44;;;;;;;11.27;9.00;;;;;;;;;;1497453;39;20034;-57
2021/06/17 00:15:48;;;;;;;11.32;9.48;;;;;;;;;;1497234;39;20306;-57
2021/06/17 00:16:50;;;;;;;14.65;9.93;;;;;;;;;;1497496;39;20038;-57
2021/06/17 00:17:52;;;;;;;11.73;9.35;;;;;;;;;;1497206;39;20019;-58
2021/06/17 00:18:53;;;;;;;13.13;9.60;;;;;;;;;;1497242;39;20043;-57
2021/06/17 00:19:54;;;;;;;12.90;9.43;;;;;;;;;;1497413;39;20035;-57
2021/06/17 00:20:56;;;;;;;12.98;10.52;;;;;;;;;;1497446;39;20283;-57
2021/06/17 00:21:57;;;;;;;11.75;10.45;;;;;;;;;;1497245;39;20280;-56
2021/06/17 00:22:59;;;;;;;12.93;10.70;;;;;;;;;;1497291;39;20034;-57
2021/06/17 00:24:00;;;;;;;12.43;10.32;;;;;;;;;;1497220;39;20031;-57
2021/06/17 00:25:02;;;;;;;13.95;10.13;;;;;;;;;;1497246;39;20034;-57
2021/06/17 00:26:04;;;;;;;12.90;10.27;;;;;;;;;;1497350;39;20032;-57
2021/06/17 00:27:07;;;;;;;12.45;10.52;;;;;;;;;;1497268;39;20031;-57
2021/06/17 00:28:08;;;;;;;12.60;10.68;;;;;;;;;;1497347;39;20038;-57
2021/06/17 00:29:10;;;;;;;14.93;11.30;;;;;;;;;;1497261;39;20067;-57
2021/06/17 00:30:12;;;;;;;13.23;10.45;;;;;;;;;;1497343;39;20023;-57
2021/06/17 00:31:14;;;;;;;15.40;10.82;;;;;;;;;;1497331;39;20027;-57
2021/06/17 00:32:14;;;;;;;13.38;10.88;;;;;;;;;;1497259;39;20023;-56
2021/06/17 00:33:16;;;;;;;13.70;10.52;;;;;;;;;;1497237;39;20034;-57
2021/06/17 00:34:17;;;;;;;12.57;11.15;;;;;;;;;;1497191;39;20368;-57
2021/06/17 00:35:19;;;;;;;12.43;10.57;;;;;;;;;;1497231;39;20024;-56
2021/06/17 00:36:20;;;;;;;12.43;10.88;;;;;;;;;;1497166;39;20130;-56
2021/06/17 00:37:22;;;;;;;13.15;10.68;;;;;;;;;;1497517;39;20077;-57
2021/06/17 00:38:24;;;;;;;15.13;10.57;;;;;;;;;;1497236;39;20039;-57
2021/06/17 00:39:25;;;;;;;12.98;10.32;;;;;;;;;;1497242;39;20050;-56
2021/06/17 00:40:28;;;;;;;12.48;11.18;;;;;;;;;;1497226;39;20028;-57
2021/06/17 00:41:30;;;;;;;15.73;10.70;;;;;;;;;;1497133;39;20031;-57
2021/06/17 00:42:32;;;;;;;14.40;11.55;;;;;;;;;;1497267;39;20042;-57
2021/06/17 00:43:33;;;;;;;13.30;10.80;;;;;;;;;;1497156;39;20035;-56
2021/06/17 00:44:35;;;;;;;12.88;10.63;;;;;;;;;;1497385;39;20027;-57
2021/06/17 00:45:39;;;;;;;14.02;11.25;;;;;;;;;;1497305;39;20027;-57
2021/06/17 00:46:41;;;;;;;15.05;10.98;;;;;;;;;;1497123;39;20364;-57
2021/06/17 00:47:42;;;;;;;12.48;10.98;;;;;;;;;;1497137;39;20023;-57
2021/06/17 00:48:44;;;;;;;13.50;11.02;;;;;;;;;;1497271;39;20036;-56
2021/06/17 00:49:44;;;;;;;14.52;10.35;;;;;;;;;;1497412;39;20045;-56
2021/06/17 00:50:50;;;;;;;13.55;10.65;;;;;;;;;;1497284;39;20046;-56
2021/06/17 00:51:51;;;;;;;15.68;11.32;;;;;;;;;;1497150;39;20306;-57
2021/06/17 00:52:53;;;;;;;13.25;10.75;;;;;;;;;;1497044;39;20028;-57
2021/06/17 00:53:54;;;;;;;12.48;10.90;;;;;;;;;;1496794;39;20027;-57
2021/06/17 00:54:57;;;;;;;12.85;10.50;;;;;;;;;;1497274;39;20076;-57
2021/06/17 00:56:00;;;;;;;13.13;11.00;;;;;;;;;;1497428;39;20027;-56
2021/06/17 00:57:04;;;;;;;13.20;11.05;;;;;;;;;;1497140;39;20088;-56
2021/06/17 00:58:06;;;;;;;13.77;11.38;;;;;;;;;;1497217;39;20027;-56
2021/06/17 00:59:08;;;;;;;13.73;11.30;;;;;;;;;;1497049;39;20276;-56
2021/06/17 01:00:12;;;;;;;13.68;11.38;;;;;;;;;;1497357;39;20039;-56
2021/06/17 01:01:13;;;;;;;13.63;10.68;;;;;;;;;;1497078;39;20092;-56
2021/06/17 01:02:15;;;;;;;12.57;10.98;;;;;;;;;;1497359;39;20088;-57
2021/06/17 01:03:17;;;;;;;14.77;11.15;;;;;;;;;;1497277;39;20383;-57
2021/06/17 01:04:18;;;;;;;12.55;10.55;;;;;;;;;;1497250;39;20027;-56
2021/06/17 01:05:21;;;;;;;15.15;10.35;;;;;;;;;;1497329;39;20031;-56
2021/06/17 01:06:22;;;;;;;16.13;11.27;;;;;;;;;;1497285;39;20030;-57
2021/06/17 01:07:31;;;;;;;14.30;11.25;;;;;;;;;;1497451;39;20294;-57
2021/06/17 01:08:49;;;;;;;14.27;11.48;;;;;;;;;;1497034;39;20031;-56
2021/06/17 01:10:03;;;;;;;14.93;11.18;;;;;;;;;;1497327;39;20164;-57
2021/06/17 01:11:20;;;;;;;12.70;11.40;;;;;;;;;;1497493;39;20031;-56
2021/06/17 01:12:32;;;;;;;14.07;11.07;;;;;;;;;;1497413;39;20034;-56
2021/06/17 01:13:41;;;;;;;12.95;10.98;;;;;;;;;;1497307;39;20031;-56
2021/06/17 01:14:49;;;;;;;15.02;11.52;;;;;;;;;;1497184;39;20024;-57
2021/06/17 01:15:58;;;;;;;14.63;11.65;;;;;;;;;;1497271;39;20019;-56
2021/06/17 01:17:04;;;;;;;18.88;11.82;;;;;;;;;;1497189;39;20027;-56
2021/06/17 01:18:11;;;;;;;14.55;11.55;;;;;;;;;;1497065;39;20031;-56
2021/06/17 01:19:16;;;;;;;13.82;11.15;;;;;;;;;;1497052;39;20383;-57
2021/06/17 01:20:24;;;;;;;13.32;11.75;;;;;;;;;;1497521;39;20027;-56
2021/06/17 01:21:46;;;;;;;13.25;11.73;;;;;;;;;;1497357;39;20031;-56
2021/06/17 01:22:54;;;;;;;13.13;11.20;;;;;;;;;;1497139;39;20035;-56
2021/06/17 01:24:14;;;;;;;12.85;11.55;;;;;;;;;;1497087;39;20395;-56
2021/06/17 01:25:31;;;;;;;14.73;11.23;;;;;;;;;;1497182;39;20402;-56
2021/06/17 01:26:42;;;;;;;13.50;10.75;;;;;;;;;;1497374;39;20028;-57
2021/06/17 01:28:04;;;;;;;16.63;11.45;;;;;;;;;;1497181;39;20291;-57
2021/06/17 01:29:06;;;;;;;15.50;11.57;;;;;;;;;;1497087;39;20335;-57
2021/06/17 01:30:10;;;;;;;13.73;12.23;;;;;;;;;;1497298;39;20031;-57
2021/06/17 01:31:14;;;;;;;14.52;11.80;;;;;;;;;;1497019;39;20058;-56
2021/06/17 01:32:18;;;;;;;12.80;11.48;;;;;;;;;;1497346;39;20105;-57
2021/06/17 01:33:23;;;;;;;14.95;11.57;;;;;;;;;;1497008;39;20027;-56
2021/06/17 01:34:26;;;;;;;12.75;11.02;;;;;;;;;;1497299;39;20023;-56
2021/06/17 01:35:28;;;;;;;15.70;11.75;;;;;;;;;;1497206;39;20073;-57
2021/06/17 01:36:35;;;;;;;16.58;11.77;;;;;;;;;;1497363;39;20027;-56
2021/06/17 01:37:38;;;;;;;16.27;12.38;;;;;;;;;;1497126;39;20413;-56
2021/06/17 01:38:41;;;;;;;13.60;11.43;;;;;;;;;;1496922;39;20038;-57
2021/06/17 01:39:44;;;;;;;14.27;11.60;;;;;;;;;;1497033;39;20027;-56
2021/06/17 01:40:47;;;;;;;15.98;12.80;;;;;;;;;;1497172;39;20383;-56
2021/06/17 01:41:49;;;;;;;14.00;11.93;;;;;;;;;;1497025;39;20391;-57
2021/06/17 01:42:51;;;;;;;13.45;11.30;;;;;;;;;;1497225;39;20039;-56
2021/06/17 01:43:54;;;;;;;15.68;11.55;;;;;;;;;;1497226;39;20023;-57
2021/06/17 01:44:58;;;;;;;13.05;11.30;;;;;;;;;;1497138;39;20038;-57
2021/06/17 01:45:59;;;;;;;13.98;11.68;;;;;;;;;;1497281;39;20027;-57
2021/06/17 01:47:02;;;;;;;13.60;11.95;;;;;;;;;;1497105;39;20060;-56
2021/06/17 01:48:04;;;;;;;15.50;11.93;;;;;;;;;;1496914;39;20053;-56
2021/06/17 01:49:07;;;;;;;13.23;11.82;;;;;;;;;;1497019;39;20401;-57
2021/06/17 01:50:12;;;;;;;13.50;12.00;;;;;;;;;;1497183;39;20295;-56
2021/06/17 01:51:19;;;;;;;14.45;11.65;;;;;;;;;;1497130;39;20041;-56
2021/06/17 01:52:23;;;;;;;12.77;11.18;;;;;;;;;;1497193;39;20027;-56
2021/06/17 01:53:25;;;;;;;13.02;11.15;;;;;;;;;;1497011;39;20067;-56
2021/06/17 01:54:27;;;;;;;12.77;11.43;;;;;;;;;;1496962;39;20028;-57
2021/06/17 01:55:31;;;;;;;12.77;11.07;;;;;;;;;;1497215;39;20031;-57
2021/06/17 01:56:34;;;;;;;12.48;11.07;;;;;;;;;;1497140;39;20030;-55
2021/06/17 01:57:39;;;;;;;15.88;10.70;;;;;;;;;;1497262;39;20042;-56
2021/06/17 01:58:40;;;;;;;13.38;10.88;;;;;;;;;;1496856;39;20321;-57
2021/06/17 01:59:45;;;;;;;12.27;10.95;;;;;;;;;;1497003;39;20382;-56
2021/06/17 02:00:47;;;;;;;14.48;11.23;;;;;;;;;;1496942;39;20034;-56
2021/06/17 02:01:51;;;;;;;11.75;10.48;;;;;;;;;;1496940;39;20039;-57
2021/06/17 02:02:53;;;;;;;12.23;10.32;;;;;;;;;;1497382;39;20031;-57
2021/06/17 02:03:55;;;;;;;13.63;10.98;;;;;;;;;;1496938;39;20031;-56
2021/06/17 02:04:57;;;;;;;13.85;10.60;;;;;;;;;;1496969;39;20047;-57
2021/06/17 02:05:59;;;;;;;14.45;10.40;;;;;;;;;;1497049;39;20112;-56
2021/06/17 02:07:00;;;;;;;14.02;11.05;;;;;;;;;;1497018;39;20027;-57
2021/06/17 02:08:03;;;;;;;11.88;10.32;;;;;;;;;;1496989;39;20047;-57
2021/06/17 02:09:05;;;;;;;11.48;10.18;;;;;;;;;;1496988;39;20030;-56
2021/06/17 02:10:08;;;;;;;15.57;10.98;;;;;;;;;;1497205;39;20036;-56
2021/06/17 02:11:09;;;;;;;12.75;10.45;;;;;;;;;;1496925;39;20298;-57
2021/06/17 02:12:11;;;;;;;12.27;10.73;;;;;;;;;;1497193;39;20028;-56
2021/06/17 02:13:14;;;;;;;12.68;11.30;;;;;;;;;;1496872;39;20028;-56
2021/06/17 02:14:16;;;;;;;11.95;10.35;;;;;;;;;;1497267;39;20030;-56
2021/06/17 02:15:19;;;;;;;12.90;10.02;;;;;;;;;;1497174;39;20024;-57
2021/06/17 02:16:22;;;;;;;12.90;10.45;;;;;;;;;;1497161;39;20038;-57
2021/06/17 02:17:25;;;;;;;11.48;10.27;;;;;;;;;;1497152;39;20059;-57
2021/06/17 02:18:29;;;;;;;12.40;10.43;;;;;;;;;;1497169;39;20039;-56
2021/06/17 02:19:32;;;;;;;15.32;10.90;;;;;;;;;;1496891;39;20028;-56
2021/06/17 02:20:34;;;;;;;13.57;10.45;;;;;;;;;;1497155;39;20116;-57
2021/06/17 02:21:35;;;;;;;11.68;10.45;;;;;;;;;;1496973;39;20022;-57
2021/06/17 02:22:42;;;;;;;12.98;10.85;;;;;;;;;;1497241;39;20427;-56
2021/06/17 02:23:49;;;;;;;13.73;10.30;;;;;;;;;;1497195;39;20061;-56
2021/06/17 02:24:51;;;;;;;11.73;10.07;;;;;;;;;;1496889;39;20027;-57
2021/06/17 02:25:56;;;;;;;14.57;10.60;;;;;;;;;;1496938;39;20271;-57
2021/06/17 02:27:00;;;;;;;13.88;10.48;;;;;;;;;;1496830;39;20039;-56
2021/06/17 02:28:06;;;;;;;12.88;10.82;;;;;;;;;;1496833;39;20039;-56
2021/06/17 02:29:10;;;;;;;13.23;10.57;;;;;;;;;;1496868;39;20028;-57
2021/06/17 02:30:15;;;;;;;11.90;10.40;;;;;;;;;;1496954;39;20027;-57
2021/06/17 02:31:19;;;;;;;12.25;10.05;;;;;;;;;;1497187;39;20099;-57
2021/06/17 02:32:23;;;;;;;13.02;10.25;;;;;;;;;;1496865;39;20433;-57
2021/06/17 02:33:25;;;;;;;11.80;10.20;;;;;;;;;;1496997;39;20027;-57
2021/06/17 02:34:28;;;;;;;13.10;10.25;;;;;;;;;;1496905;39;20031;-57
2021/06/17 02:35:30;;;;;;;11.15;9.82;;;;;;;;;;1496889;39;20027;-57
2021/06/17 02:36:32;;;;;;;12.15;9.93;;;;;;;;;;1497119;39;20039;-57
2021/06/17 02:37:35;;;;;;;11.63;9.57;;;;;;;;;;1497056;39;20116;-56
2021/06/17 02:38:40;;;;;;;13.27;10.02;;;;;;;;;;1496864;39;20038;-57
2021/06/17 02:39:43;;;;;;;10.80;9.43;;;;;;;;;;1497023;39;20024;-57
2021/06/17 02:40:48;;;;;;;10.88;9.73;;;;;;;;;;1497083;39;20023;-56
2021/06/17 02:41:53;;;;;;;13.48;9.70;;;;;;;;;;1496782;39;20023;-57
2021/06/17 02:42:57;;;;;;;11.75;9.82;;;;;;;;;;1497024;39;20028;-57
2021/06/17 02:43:59;;;;;;;14.63;9.77;;;;;;;;;;1496993;39;20034;-56
2021/06/17 02:45:02;;;;;;;11.48;9.63;;;;;;;;;;1497124;39;20032;-56
2021/06/17 02:46:03;;;;;;;12.13;9.95;;;;;;;;;;1497006;39;20115;-56
2021/06/17 02:47:06;;;;;;;15.98;10.45;;;;;;;;;;1496780;39;20380;-57
2021/06/17 02:48:08;;;;;;;12.82;9.82;;;;;;;;;;1496766;39;20035;-57
2021/06/17 02:49:10;;;;;;;12.25;9.95;;;;;;;;;;1496762;39;20071;-57
2021/06/17 02:50:12;;;;;;;11.38;9.82;;;;;;;;;;1496882;39;20031;-57
2021/06/17 02:51:14;;;;;;;13.68;10.15;;;;;;;;;;1496865;39;20333;-57
2021/06/17 02:52:15;;;;;;;13.07;10.10;;;;;;;;;;1496784;39;20483;-56
2021/06/17 02:53:16;;;;;;;13.80;10.07;;;;;;;;;;1496927;39;20112;-56
2021/06/17 02:54:19;;;;;;;15.70;9.88;;;;;;;;;;1496958;39;20065;-57
2021/06/17 02:55:20;;;;;;;11.02;9.68;;;;;;;;;;1496878;39;20407;-57
2021/06/17 02:56:27;;;;;;;10.90;9.75;;;;;;;;;;1496924;39;20024;-56
2021/06/17 02:57:35;;;;;;;11.10;9.20;;;;;;;;;;1496748;39;20386;-56
2021/06/17 02:58:49;;;;;;;10.23;9.10;;;;;;;;;;1496739;39;20311;-56
2021/06/17 03:00:06;;;;;;;12.23;10.00;;;;;;;;;;1497175;39;20104;-57
2021/06/17 03:01:13;;;;;;;12.48;9.95;;;;;;;;;;1496785;39;20039;-57
2021/06/17 03:02:20;;;;;;;12.48;9.82;;;;;;;;;;1496944;39;20042;-56
2021/06/17 03:03:28;;;;;;;10.93;8.95;;;;;;;;;;1496835;39;20342;-56
2021/06/17 03:04:34;;;;;;;10.77;9.35;;;;;;;;;;1497068;39;20100;-56
2021/06/17 03:05:40;;;;;;;12.60;10.13;;;;;;;;;;1496735;39;20028;-56
2021/06/17 03:06:49;;;;;;;12.38;9.38;;;;;;;;;;1496724;39;20474;-57
2021/06/17 03:07:57;;;;;;;12.65;10.10;;;;;;;;;;1496878;39;20032;-56
2021/06/17 03:08:59;;;;;;;11.43;10.00;;;;;;;;;;1496815;39;20058;-57
2021/06/17 03:10:04;;;;;;;14.48;9.70;;;;;;;;;;1496982;39;20023;-57
2021/06/17 03:11:09;;;;;;;12.75;9.63;;;;;;;;;;1496876;39;20402;-57
2021/06/17 03:12:14;;;;;;;12.18;9.40;;;;;;;;;;1496843;39;20032;-56
2021/06/17 03:13:16;;;;;;;11.15;9.48;;;;;;;;;;1496785;39;20031;-56
2021/06/17 03:14:21;;;;;;;10.73;9.15;;;;;;;;;;1496855;39;20035;-56
2021/06/17 03:15:26;;;;;;;12.57;9.93;;;;;;;;;;1496947;39;20088;-57
2021/06/17 03:16:30;;;;;;;14.13;9.10;;;;;;;;;;1497082;39;20030;-57
2021/06/17 03:17:35;;;;;;;14.68;9.90;;;;;;;;;;1497594;39;20031;-57
2021/06/17 03:18:38;;;;;;;11.45;9.25;;;;;;;;;;1497342;39;20035;-57
2021/06/17 03:19:41;;;;;;;15.30;10.90;;;;;;;;;;1497608;39;20023;-56
2021/06/17 03:20:46;;;;;;;12.85;9.75;;;;;;;;;;1497587;39;20038;-56
2021/06/17 03:21:51;;;;;;;14.80;10.60;;;;;;;;;;1497461;39;20027;-56
2021/06/17 03:22:55;;;;;;;10.70;9.45;;;;;;;;;;1497382;39;20398;-56
2021/06/17 03:23:58;;;;;;;13.20;9.90;;;;;;;;;;1497424;39;20019;-57
2021/06/17 03:25:05;;;;;;;12.27;9.68;;;;;;;;;;1497552;39;20039;-56
2021/06/17 03:26:10;;;;;;;11.48;9.32;;;;;;;;;;1497642;39;20031;-56
2021/06/17 03:27:11;;;;;;;11.55;8.93;;;;;;;;;;1497379;39;20027;-57
2021/06/17 03:28:15;;;;;;;11.73;9.70;;;;;;;;;;1497478;39;20322;-57
2021/06/17 03:29:18;;;;;;;11.57;9.50;;;;;;;;;;1497325;39;20031;-56
2021/06/17 03:30:23;;;;;;;13.75;9.85;;;;;;;;;;1497528;39;20053;-56
2021/06/17 03:31:27;;;;;;;11.80;9.63;;;;;;;;;;1497517;39;20038;-56
2021/06/17 03:32:30;;;;;;;13.07;10.32;;;;;;;;;;1497391;39;20104;-57
2021/06/17 03:33:36;;;;;;;12.63;9.90;;;;;;;;;;1497297;39;20088;-56
2021/06/17 03:34:41;;;;;;;13.77;10.20;;;;;;;;;;1497420;39;20340;-57
2021/06/17 03:35:42;;;;;;;13.15;9.50;;;;;;;;;;1497377;39;20034;-57
2021/06/17 03:36:45;;;;;;;13.23;9.98;;;;;;;;;;1497323;39;20043;-56
2021/06/17 03:37:48;;;;;;;12.07;9.93;;;;;;;;;;1497506;39;20027;-56
2021/06/17 03:38:52;;;;;;;14.00;10.13;;;;;;;;;;1497545;39;20067;-57
2021/06/17 03:39:56;;;;;;;15.23;10.93;;;;;;;;;;1497661;39;20038;-56
2021/06/17 03:41:00;;;;;;;15.77;11.23;;;;;;;;;;1497289;39;20039;-56
2021/06/17 03:42:01;;;;;;;12.60;10.63;;;;;;;;;;1497589;39;20107;-56
2021/06/17 03:43:05;;;;;;;14.63;10.13;;;;;;;;;;1497447;39;20158;-57
2021/06/17 03:44:06;;;;;;;12.25;10.05;;;;;;;;;;1497279;39;20064;-56
2021/06/17 03:45:09;;;;;;;12.18;9.68;;;;;;;;;;1497355;39;20039;-56
2021/06/17 03:46:11;;;;;;;13.40;10.60;;;;;;;;;;1497398;39;20031;-57
2021/06/17 03:47:13;;;;;;;12.90;10.02;;;;;;;;;;1497551;39;20024;-56
2021/06/17 03:48:15;;;;;;;11.15;9.95;;;;;;;;;;1497225;39;20302;-56
2021/06/17 03:49:19;;;;;;;12.50;9.88;;;;;;;;;;1497406;39;20027;-57
2021/06/17 03:50:23;;;;;;;11.18;9.60;;;;;;;;;;1497366;39;20111;-56
2021/06/17 03:51:26;;;;;;;12.10;9.50;;;;;;;;;;1497309;39;20027;-57
2021/06/17 03:52:27;;;;;;;13.35;9.43;;;;;;;;;;1497514;39;20034;-57
2021/06/17 03:53:30;;;;;;;11.50;9.77;;;;;;;;;;1497565;39;20067;-57
2021/06/17 03:54:32;;;;;;;11.27;9.73;;;;;;;;;;1497311;39;20298;-57
2021/06/17 03:55:36;;;;;;;15.00;10.80;;;;;;;;;;1497462;39;20027;-57
2021/06/17 03:56:37;;;;;;;11.27;9.63;;;;;;;;;;1497290;39;20410;-57
2021/06/17 03:57:41;;;;;;;11.65;9.60;;;;;;;;;;1497298;39;20411;-57
2021/06/17 03:58:42;;;;;;;11.43;9.90;;;;;;;;;;1497504;39;20107;-56
2021/06/17 03:59:45;;;;;;;11.10;9.32;;;;;;;;;;1497421;39;20039;-57
2021/06/17 04:00:46;;;;;;;10.35;9.27;;;;;;;;;;1497222;39;20290;-57
2021/06/17 04:01:48;;;;;;;11.60;9.60;;;;;;;;;;1497341;39;20031;-57
2021/06/17 04:02:52;;;;;;;11.50;8.90;;;;;;;;;;1497498;39;20031;-57
2021/06/17 04:03:54;;;;;;;10.75;9.23;;;;;;;;;;1497531;39;20061;-56
2021/06/17 04:04:56;;;;;;;11.70;9.52;;;;;;;;;;1497519;39;20103;-57
2021/06/17 04:05:59;;;;;;;14.90;9.68;;;;;;;;;;1497549;39;20034;-57
2021/06/17 04:07:03;;;;;;;11.50;9.70;;;;;;;;;;1497401;39;20032;-57
2021/06/17 04:08:09;;;;;;;11.05;9.20;;;;;;;;;;1497350;39;20066;-57
2021/06/17 04:09:11;;;;;;;11.80;9.27;;;;;;;;;;1497622;39;20027;-57
2021/06/17 04:10:17;;;;;;;12.27;9.48;;;;;;;;;;1497429;39;20320;-57
2021/06/17 04:11:20;;;;;;;13.60;10.02;;;;;;;;;;1497442;39;20079;-56
2021/06/17 04:12:23;;;;;;;12.63;9.80;;;;;;;;;;1497319;39;20055;-57
2021/06/17 04:13:25;;;;;;;12.23;9.02;;;;;;;;;;1497245;39;20035;-57
2021/06/17 04:14:28;;;;;;;11.25;9.73;;;;;;;;;;1497484;39;20031;-57
2021/06/17 04:15:31;;;;;;;12.32;9.45;;;;;;;;;;1497259;39;20031;-57
2021/06/17 04:16:35;;;;;;;11.00;9.18;;;;;;;;;;1497381;39;20044;-57
2021/06/17 04:17:39;;;;;;;12.10;9.32;;;;;;;;;;1497278;39;20306;-57
2021/06/17 04:18:42;;;;;;;12.90;9.55;;;;;;;;;;1497433;39;20051;-57
2021/06/17 04:19:45;;;;;;;12.30;9.10;;;;;;;;;;1497281;39;20031;-57
2021/06/17 04:20:50;;;;;;;10.32;9.25;;;;;;;;;;1497537;39;20031;-57
2021/06/17 04:21:54;;;;;;;11.70;8.98;;;;;;;;;;1497518;39;20116;-57
2021/06/17 04:22:58;;;;;;;10.68;8.82;;;;;;;;;;1497596;39;20104;-57
2021/06/17 04:24:05;;;;;;;11.43;9.38;;;;;;;;;;1497212;39;20314;-56
2021/06/17 04:25:09;;;;;;;10.93;9.25;;;;;;;;;;1497394;39;20036;-57
2021/06/17 04:26:11;;;;;;;10.85;8.90;;;;;;;;;;1497176;39;20387;-57
2021/06/17 04:27:13;;;;;;;10.52;9.23;;;;;;;;;;1497249;39;20410;-57
2021/06/17 04:28:15;;;;;;;10.68;9.48;;;;;;;;;;1497457;39;20042;-57
2021/06/17 04:29:17;;;;;;;11.02;9.18;;;;;;;;;;1497344;39;20023;-57
2021/06/17 04:30:20;;;;;;;12.15;9.07;;;;;;;;;;1497197;39;20042;-57
2021/06/17 04:31:21;;;;;;;12.88;9.35;;;;;;;;;;1497394;39;20039;-57
2021/06/17 04:32:23;;;;;;;12.07;9.32;;;;;;;;;;1497636;39;20023;-57
2021/06/17 04:33:26;;;;;;;11.30;9.07;;;;;;;;;;1497356;39;20049;-57
2021/06/17 04:34:28;;;;;;;12.05;9.75;;;;;;;;;;1497559;39;20031;-57
2021/06/17 04:35:30;;;;;;;11.02;9.45;;;;;;;;;;1497179;39;20133;-57
2021/06/17 04:36:33;;;;;;;11.65;9.10;;;;;;;;;;1497512;39;20055;-57
2021/06/17 04:37:34;;;;;;;15.82;9.20;;;;;;;;;;1497487;39;20050;-57
2021/06/17 04:38:38;;;;;;;11.23;9.20;;;;;;;;;;1497321;39;20031;-57
2021/06/17 04:39:39;;;;;;;13.85;9.35;;;;;;;;;;1497321;39;20023;-56
2021/06/17 04:40:41;;;;;;;11.82;9.32;;;;;;;;;;1497334;39;20036;-57
2021/06/17 04:41:44;;;;;;;13.73;9.88;;;;;;;;;;1497151;39;20312;-57
2021/06/17 04:42:45;;;;;;;12.65;9.60;;;;;;;;;;1497427;39;20063;-57
2021/06/17 04:43:47;;;;;;;11.20;8.32;;;;;;;;;;1497227;39;20361;-57
2021/06/17 04:44:49;;;;;;;10.25;9.10;;;;;;;;;;1497246;39;20308;-57
2021/06/17 04:45:51;;;;;;;11.68;8.52;;;;;;;;;;1497210;39;20027;-57
2021/06/17 04:46:55;;;;;;;11.13;8.88;;;;;;;;;;1497285;39;20053;-57
2021/06/17 04:47:59;;;;;;;10.80;8.85;;;;;;;;;;1497301;39;20114;-57
2021/06/17 04:49:03;;;;;;;11.18;8.82;;;;;;;;;;1497517;39;20035;-57
2021/06/17 04:50:06;;;;;;;12.07;9.52;;;;;;;;;;1497122;39;20307;-57
2021/06/17 04:51:10;;;;;;;14.07;8.82;;;;;;;;;;1497198;39;20337;-57
2021/06/17 04:52:15;;;;;;;10.23;9.23;;;;;;;;;;1497177;39;20038;-57
2021/06/17 04:53:17;;;;;;;11.10;8.70;;;;;;;;;;1497394;39;20028;-57
2021/06/17 04:54:18;;;;;;;10.18;8.57;;;;;;;;;;1497196;39;20395;-57
2021/06/17 04:55:20;;;;;;;11.43;9.02;;;;;;;;;;1497187;39;20038;-57
2021/06/17 04:56:23;;;;;;;11.20;9.07;;;;;;;;;;1497195;39;20279;-57
2021/06/17 04:57:24;;;;;;;11.40;8.90;;;;;;;;;;1497272;39;20411;-57
2021/06/17 04:58:26;;;;;;;13.52;9.00;;;;;;;;;;1497241;39;20035;-57
2021/06/17 04:59:28;;;;;;;11.70;8.70;;;;;;;;;;1497093;39;20382;-57
2021/06/17 05:00:29;;;;;;;10.18;8.35;;;;;;;;;;1497142;39;20387;-57
2021/06/17 05:01:31;;;;;;;9.40;8.40;;;;;;;;;;1497416;39;20035;-57
2021/06/17 05:02:32;;;;;;;15.10;9.10;;;;;;;;;;1497345;39;20030;-57
2021/06/17 05:03:35;;;;;;;11.52;10.15;;;;;;;;;;1497192;39;20302;-57
2021/06/17 05:04:36;;;;;;;11.77;9.65;;;;;;;;;;1492565;39;20035;-57
2021/06/17 05:05:38;;;;;;;12.48;9.57;;;;;;;;;;1492612;39;20023;-58
2021/06/17 05:06:41;;;;;;;11.98;9.00;;;;;;;;;;1497097;39;20037;-57
2021/06/17 05:10:48;;;;;;;11.98;9.25;;;;;;;;;;1497147;39;20096;-57
2021/06/17 05:11:54;;;;;;;9.40;8.10;;;;;;;;;;1497344;39;20031;-58
2021/06/17 05:12:57;;;;;;;14.50;8.75;;;;;;;;;;1497129;39;20041;-58
2021/06/17 05:13:58;;;;;;;11.98;9.10;;;;;;;;;;1497115;39;20031;-57
2021/06/17 05:15:01;;;;;;;12.88;9.18;;;;;;;;;;1497215;39;20024;-57
2021/06/17 05:16:03;;;;;;;14.90;8.75;;;;;;;;;;1497347;39;20027;-58
2021/06/17 05:17:04;;;;;;;12.65;8.05;;;;;;;;;;1497238;39;20024;-58
2021/06/17 05:18:06;;;;;;;10.02;8.38;;;;;;;;;;1497126;39;20038;-57
2021/06/17 05:19:08;;;;;;;12.30;8.98;;;;;;;;;;1497271;39;20028;-58
2021/06/17 05:20:10;;;;;;;9.70;7.82;;;;;;;;;;1496993;39;20038;-57
2021/06/17 05:21:12;;;;;;;8.85;7.93;;;;;;;;;;1497325;39;20031;-57
2021/06/17 05:22:13;;;;;;;10.57;7.97;;;;;;;;;;1497098;39;20039;-57
2021/06/17 05:23:20;;;;;;;11.00;8.48;;;;;;;;;;1497179;39;20027;-57
2021/06/17 05:24:21;;;;;;;9.35;7.72;;;;;;;;;;1497358;39;20031;-57
2021/06/17 05:25:23;;;;;;;10.05;7.43;;;;;;;;;;1497102;39;20035;-57
2021/06/17 05:26:25;;;;;;;8.65;7.15;;;;;;;;;;1497334;39;20027;-57
2021/06/17 05:27:26;;;;;;;9.65;7.22;;;;;;;;;;1497091;39;20058;-57
2021/06/17 05:28:29;;;;;;;10.18;7.80;;;;;;;;;;1497195;39;20390;-58
2021/06/17 05:29:30;;;;;;;10.32;7.65;;;;;;;;;;1497028;39;20027;-57
2021/06/17 05:30:32;;;;;;;10.35;7.07;;;;;;;;;;1497097;39;20028;-57
2021/06/17 05:31:33;;;;;;;8.73;7.30;;;;;;;;;;1497035;39;20306;-57
2021/06/17 05:32:35;;;;;;;10.02;7.57;;;;;;;;;;1497115;39;20027;-57
2021/06/17 05:33:36;;;;;;;11.38;7.25;;;;;;;;;;1497053;39;20034;-57
2021/06/17 05:34:37;;;;;;;9.20;6.90;;;;;;;;;;1497248;39;20031;-57
2021/06/17 05:35:38;;;;;;;13.15;8.00;;;;;;;;;;1497214;39;20034;-57
2021/06/17 05:36:40;;;;;;;10.77;8.35;;;;;;;;;;1497228;39;20027;-58
2021/06/17 05:37:41;;;;;;;9.00;8.10;;;;;;;;;;1497085;39;20023;-57
2021/06/17 05:38:45;;;;;;;10.07;8.30;;;;;;;;;;1497124;39;20105;-57
2021/06/17 05:39:45;;;;;;;8.73;7.20;;;;;;;;;;1496772;39;20035;-57
2021/06/17 05:40:48;;;;;;;8.77;7.40;;;;;;;;;;1497261;39;20306;-57
2021/06/17 05:41:49;;;;;;;12.38;8.20;;;;;;;;;;1497130;39;20031;-57
2021/06/17 05:42:51;;;;;;;10.50;8.88;;;;;;;;;;1497071;39;20146;-58
2021/06/17 05:43:52;;;;;;;10.77;8.05;;;;;;;;;;1497272;39;20070;-57
2021/06/17 05:44:54;;;;;;;11.73;7.45;;;;;;;;;;1497264;39;20060;-57
2021/06/17 05:45:55;;;;;;;10.95;8.57;;;;;;;;;;1496991;39;20027;-57
2021/06/17 05:46:57;;;;;;;10.80;9.00;;;;;;;;;;1497037;39;20092;-58
2021/06/17 05:47:58;;;;;;;11.65;8.85;;;;;;;;;;1496960;39;20032;-58
2021/06/17 05:49:00;;;;;;;11.02;8.93;;;;;;;;;;1497265;39;20038;-58
2021/06/17 05:50:01;;;;;;;9.70;8.35;;;;;;;;;;1497375;39;20027;-57
2021/06/17 05:51:03;;;;;;;10.70;8.98;;;;;;;;;;1497168;39;20053;-57
2021/06/17 05:52:05;;;;;;;11.00;9.18;;;;;;;;;;1497038;39;20034;-57
2021/06/17 05:53:07;;;;;;;14.00;9.93;;;;;;;;;;1497270;39;20031;-57
2021/06/17 05:54:09;;;;;;;11.18;9.23;;;;;;;;;;1497014;39;20418;-58
2021/06/17 05:55:11;;;;;;;11.98;9.45;;;;;;;;;;1497246;39;20112;-57
2021/06/17 05:56:12;;;;;;;13.05;9.52;;;;;;;;;;1497272;39;20023;-57
2021/06/17 05:57:14;;;;;;;14.23;9.20;;;;;;;;;;1497243;39;20055;-59
2021/06/17 05:58:15;;;;;;;16.52;9.45;;;;;;;;;;1496962;39;20299;-58
2021/06/17 05:59:19;;;;;;;11.95;8.30;;;;;;;;;;1497231;39;20108;-57
2021/06/17 06:00:20;;;;;;;12.57;8.02;;;;;;;;;;1497115;39;20035;-58
2021/06/17 06:01:22;;;;;;;13.15;8.23;;;;;;;;;;1497160;39;20027;-57
2021/06/17 06:02:23;;;;;;;16.08;8.23;;;;;;;;;;1497025;39;20027;-58
2021/06/17 06:03:25;;;;;;;11.52;7.85;;;;;;;;;;1497104;39;20100;-58
2021/06/17 06:04:26;;;;;;;10.15;7.90;;;;;;;;;;1497181;39;20108;-58
2021/06/17 06:05:29;;;;;;;10.65;8.23;;;;;;;;;;1497160;39;20031;-58
2021/06/17 06:06:31;;;;;;;11.30;8.15;;;;;;;;;;1496912;39;20035;-58
2021/06/17 06:07:32;;;;;;;11.55;8.40;;;;;;;;;;1492255;39;20028;-60
2021/06/17 06:08:34;;;;;;;12.45;8.13;;;;;;;;;;1492458;39;20132;-58
2021/06/17 06:09:36;;;;;;;11.40;7.95;;;;;;;;;;1496889;39;20387;-58
2021/06/17 06:10:38;;;;;;;11.05;7.68;;;;;;;;;;1497301;39;20035;-58
2021/06/17 06:11:40;;;;;;;10.68;8.18;;;;;;;;;;1496988;39;20031;-58
2021/06/17 06:12:41;;;;;;;9.80;7.72;;;;;;;;;;1497195;39;20028;-58
2021/06/17 06:13:42;;;;;;;13.05;8.27;;;;;;;;;;1496995;39;20027;-58
2021/06/17 06:14:44;;;;;;;11.48;7.97;;;;;;;;;;1497014;39;20028;-59